York, New York
Current Conditions -  °F | °C
As of 2:54 PM on Monday 24 Nov 2014 (Local Time) from KROC Reporting Station
Broken Clouds Broken Clouds  
Wind Chill: 69°   Ceiling: 10000
Heat Index: 69°   Visibility: 10mi
Dew Point: 45°   Wind: 21mph
Humidity: 42%   Direction: 210°SSW
Pressure: 29.27"   Gusts: 35mph
Location:  42.87°N, 77.89°W
Report Text: KROC 241954Z 21018G30KT 10SM FEW080 BKN100 21/07 A2927 RMK AO2 PK WND 21035/1915 SLP913 BKN V OVC T02060072
Loading
Personal Weather Stations






























Interactive Weather Map New forecast layout! Learn more

10-Day Weather Forecast

Advertisements
Track Severe Weather on mobile